sensor_id;sensor_type;location;lat;lon;timestamp;pressure;altitude;pressure_sealevel;temperature
76901;BMP280;65859;43.020;25.096;2023-04-03T00:01:42;98692.50;;;9.72
76901;BMP280;65859;43.020;25.096;2023-04-03T00:04:09;98688.34;;;9.17
76901;BMP280;65859;43.020;25.096;2023-04-03T00:06:35;98691.75;;;8.97
76901;BMP280;65859;43.020;25.096;2023-04-03T00:09:02;98699.72;;;8.76
76901;BMP280;65859;43.020;25.096;2023-04-03T00:11:28;98696.94;;;8.34
76901;BMP280;65859;43.020;25.096;2023-04-03T00:13:54;98697.41;;;8.95
76901;BMP280;65859;43.020;25.096;2023-04-03T00:16:20;98693.28;;;9.06
76901;BMP280;65859;43.020;25.096;2023-04-03T00:18:47;98687.75;;;9.32
76901;BMP280;65859;43.020;25.096;2023-04-03T00:21:14;98681.72;;;9.44
76901;BMP280;65859;43.020;25.096;2023-04-03T00:23:41;98682.75;;;8.98
76901;BMP280;65859;43.020;25.096;2023-04-03T00:26:09;98680.53;;;9.21
76901;BMP280;65859;43.020;25.096;2023-04-03T00:28:35;98680.19;;;9.43
76901;BMP280;65859;43.020;25.096;2023-04-03T00:31:01;98675.16;;;9.29
76901;BMP280;65859;43.020;25.096;2023-04-03T00:33:28;98671.88;;;9.11
76901;BMP280;65859;43.020;25.096;2023-04-03T00:35:54;98675.50;;;8.86
76901;BMP280;65859;43.020;25.096;2023-04-03T00:38:20;98676.16;;;8.83
76901;BMP280;65859;43.020;25.096;2023-04-03T00:40:48;98676.69;;;8.38
76901;BMP280;65859;43.020;25.096;2023-04-03T00:43:21;98676.16;;;8.24
76901;BMP280;65859;43.020;25.096;2023-04-03T00:45:50;98687.84;;;7.58
76901;BMP280;65859;43.020;25.096;2023-04-03T00:50:48;98677.91;;;7.21
76901;BMP280;65859;43.020;25.096;2023-04-03T00:53:24;98677.59;;;7.48
76901;BMP280;65859;43.020;25.096;2023-04-03T00:55:52;98677.09;;;7.81
76901;BMP280;65859;43.020;25.096;2023-04-03T00:58:28;98681.63;;;8.19
76901;BMP280;65859;43.020;25.096;2023-04-03T01:00:59;98686.31;;;8.13
76901;BMP280;65859;43.020;25.096;2023-04-03T01:03:28;98682.47;;;8.40
76901;BMP280;65859;43.020;25.096;2023-04-03T01:05:57;98680.13;;;8.00
76901;BMP280;65859;43.020;25.096;2023-04-03T01:08:24;98677.84;;;7.90
76901;BMP280;65859;43.020;25.096;2023-04-03T01:10:50;98682.25;;;8.24
76901;BMP280;65859;43.020;25.096;2023-04-03T01:13:28;98685.91;;;8.02
76901;BMP280;65859;43.020;25.096;2023-04-03T01:15:55;98682.72;;;8.09
76901;BMP280;65859;43.020;25.096;2023-04-03T01:18:23;98682.44;;;8.10
76901;BMP280;65859;43.020;25.096;2023-04-03T01:20:58;98683.97;;;7.47
76901;BMP280;65859;43.020;25.096;2023-04-03T01:23:55;98675.88;;;7.70
76901;BMP280;65859;43.020;25.096;2023-04-03T01:26:24;98682.44;;;8.10
76901;BMP280;65859;43.020;25.096;2023-04-03T01:28:54;98681.81;;;8.14
76901;BMP280;65859;43.020;25.096;2023-04-03T01:31:28;98676.91;;;7.86
76901;BMP280;65859;43.020;25.096;2023-04-03T01:33:55;98681.44;;;7.59
76901;BMP280;65859;43.020;25.096;2023-04-03T01:36:27;98688.00;;;7.45
76901;BMP280;65859;43.020;25.096;2023-04-03T01:38:55;98690.91;;;6.91
76901;BMP280;65859;43.020;25.096;2023-04-03T01:41:22;98690.59;;;6.84
76901;BMP280;65859;43.020;25.096;2023-04-03T01:43:49;98697.00;;;7.09
76901;BMP280;65859;43.020;25.096;2023-04-03T01:46:19;98686.88;;;6.94
76901;BMP280;65859;43.020;25.096;2023-04-03T01:48:46;98688.94;;;7.23
76901;BMP280;65859;43.020;25.096;2023-04-03T01:51:12;98690.00;;;7.56
76901;BMP280;65859;43.020;25.096;2023-04-03T01:53:39;98702.97;;;7.96
76901;BMP280;65859;43.020;25.096;2023-04-03T01:56:05;98709.59;;;8.20
76901;BMP280;65859;43.020;25.096;2023-04-03T01:58:32;98701.31;;;7.92
76901;BMP280;65859;43.020;25.096;2023-04-03T02:00:59;98705.38;;;7.80
76901;BMP280;65859;43.020;25.096;2023-04-03T02:03:26;98706.13;;;7.72
76901;BMP280;65859;43.020;25.096;2023-04-03T02:05:53;98704.59;;;7.54
76901;BMP280;65859;43.020;25.096;2023-04-03T02:08:19;98703.97;;;7.66
76901;BMP280;65859;43.020;25.096;2023-04-03T02:10:49;98716.69;;;7.64
76901;BMP280;65859;43.020;25.096;2023-04-03T02:13:17;98711.97;;;6.74
76901;BMP280;65859;43.020;25.096;2023-04-03T02:15:43;98713.00;;;6.64
76901;BMP280;65859;43.020;25.096;2023-04-03T02:18:11;98717.31;;;7.17
76901;BMP280;65859;43.020;25.096;2023-04-03T02:20:38;98705.09;;;7.21
76901;BMP280;65859;43.020;25.096;2023-04-03T02:23:04;98703.94;;;7.83
76901;BMP280;65859;43.020;25.096;2023-04-03T02:25:31;98701.78;;;7.68
76901;BMP280;65859;43.020;25.096;2023-04-03T02:27:58;98702.59;;;7.34
76901;BMP280;65859;43.020;25.096;2023-04-03T02:30:25;98699.50;;;7.23
76901;BMP280;65859;43.020;25.096;2023-04-03T02:32:52;98701.97;;;6.62
76901;BMP280;65859;43.020;25.096;2023-04-03T02:35:19;98696.88;;;6.57
76901;BMP280;65859;43.020;25.096;2023-04-03T02:37:46;98697.94;;;6.16
76901;BMP280;65859;43.020;25.096;2023-04-03T02:40:12;98700.84;;;6.06
76901;BMP280;65859;43.020;25.096;2023-04-03T02:42:38;98703.03;;;6.13
76901;BMP280;65859;43.020;25.096;2023-04-03T02:45:05;98704.78;;;5.95
76901;BMP280;65859;43.020;25.096;2023-04-03T02:47:31;98702.41;;;5.85
76901;BMP280;65859;43.020;25.096;2023-04-03T02:49:58;98703.97;;;5.86
76901;BMP280;65859;43.020;25.096;2023-04-03T02:52:24;98701.97;;;5.69
76901;BMP280;65859;43.020;25.096;2023-04-03T02:54:50;98701.38;;;5.94
76901;BMP280;65859;43.020;25.096;2023-04-03T02:57:17;98700.13;;;6.23
76901;BMP280;65859;43.020;25.096;2023-04-03T02:59:43;98710.00;;;6.97
76901;BMP280;65859;43.020;25.096;2023-04-03T03:02:10;98711.75;;;7.19
76901;BMP280;65859;43.020;25.096;2023-04-03T03:04:38;98710.00;;;7.05
76901;BMP280;65859;43.020;25.096;2023-04-03T03:07:04;98707.16;;;6.76
76901;BMP280;65859;43.020;25.096;2023-04-03T03:09:31;98710.38;;;6.56
76901;BMP280;65859;43.020;25.096;2023-04-03T03:11:58;98705.88;;;6.65
76901;BMP280;65859;43.020;25.096;2023-04-03T03:14:24;98704.38;;;6.72
76901;BMP280;65859;43.020;25.096;2023-04-03T03:16:50;98702.72;;;6.94
76901;BMP280;65859;43.020;25.096;2023-04-03T03:19:17;98692.94;;;6.86
76901;BMP280;65859;43.020;25.096;2023-04-03T03:21:43;98693.00;;;6.63
76901;BMP280;65859;43.020;25.096;2023-04-03T03:24:10;98694.59;;;6.73
76901;BMP280;65859;43.020;25.096;2023-04-03T03:26:38;98687.50;;;6.34
76901;BMP280;65859;43.020;25.096;2023-04-03T03:29:04;98686.59;;;6.07
76901;BMP280;65859;43.020;25.096;2023-04-03T03:31:30;98688.28;;;6.43
76901;BMP280;65859;43.020;25.096;2023-04-03T03:33:56;98693.78;;;5.93
76901;BMP280;65859;43.020;25.096;2023-04-03T03:36:24;98691.09;;;5.84
76901;BMP280;65859;43.020;25.096;2023-04-03T03:38:50;98686.31;;;5.41
76901;BMP280;65859;43.020;25.096;2023-04-03T03:41:17;98687.47;;;5.35
76901;BMP280;65859;43.020;25.096;2023-04-03T03:43:43;98695.41;;;5.58
76901;BMP280;65859;43.020;25.096;2023-04-03T03:46:09;98689.34;;;5.35
76901;BMP280;65859;43.020;25.096;2023-04-03T03:48:36;98693.25;;;5.37
76901;BMP280;65859;43.020;25.096;2023-04-03T03:51:03;98693.09;;;5.56
76901;BMP280;65859;43.020;25.096;2023-04-03T03:53:29;98686.78;;;5.88
76901;BMP280;65859;43.020;25.096;2023-04-03T03:55:56;98696.91;;;6.74
76901;BMP280;65859;43.020;25.096;2023-04-03T03:58:22;98695.88;;;7.01
76901;BMP280;65859;43.020;25.096;2023-04-03T04:00:48;98704.19;;;6.69
76901;BMP280;65859;43.020;25.096;2023-04-03T04:03:15;98697.63;;;6.49
76901;BMP280;65859;43.020;25.096;2023-04-03T04:05:41;98695.06;;;6.66
76901;BMP280;65859;43.020;25.096;2023-04-03T04:08:10;98707.50;;;6.43
76901;BMP280;65859;43.020;25.096;2023-04-03T04:10:38;98713.22;;;6.37
76901;BMP280;65859;43.020;25.096;2023-04-03T04:13:04;98704.00;;;6.17
76901;BMP280;65859;43.020;25.096;2023-04-03T04:15:30;98699.47;;;5.86
76901;BMP280;65859;43.020;25.096;2023-04-03T04:17:57;98702.44;;;5.93
76901;BMP280;65859;43.020;25.096;2023-04-03T04:20:23;98715.56;;;6.38
76901;BMP280;65859;43.020;25.096;2023-04-03T04:22:49;98704.06;;;6.03
76901;BMP280;65859;43.020;25.096;2023-04-03T04:25:16;98704.28;;;6.46
76901;BMP280;65859;43.020;25.096;2023-04-03T04:27:42;98702.47;;;6.24
76901;BMP280;65859;43.020;25.096;2023-04-03T04:30:10;98706.78;;;5.67
76901;BMP280;65859;43.020;25.096;2023-04-03T04:32:36;98703.66;;;5.87
76901;BMP280;65859;43.020;25.096;2023-04-03T04:35:03;98706.22;;;6.80
76901;BMP280;65859;43.020;25.096;2023-04-03T04:37:30;98709.09;;;7.53
76901;BMP280;65859;43.020;25.096;2023-04-03T04:39:57;98714.16;;;7.93
76901;BMP280;65859;43.020;25.096;2023-04-03T04:42:24;98729.09;;;7.72
76901;BMP280;65859;43.020;25.096;2023-04-03T04:44:50;98729.63;;;7.48
76901;BMP280;65859;43.020;25.096;2023-04-03T04:47:16;98725.72;;;7.19
76901;BMP280;65859;43.020;25.096;2023-04-03T04:49:43;98737.34;;;7.18
76901;BMP280;65859;43.020;25.096;2023-04-03T04:52:09;98742.00;;;7.39
76901;BMP280;65859;43.020;25.096;2023-04-03T04:54:35;98746.19;;;7.74
76901;BMP280;65859;43.020;25.096;2023-04-03T04:57:02;98753.63;;;8.54
76901;BMP280;65859;43.020;25.096;2023-04-03T04:59:28;98761.94;;;8.26
76901;BMP280;65859;43.020;25.096;2023-04-03T05:01:54;98758.03;;;7.77
76901;BMP280;65859;43.020;25.096;2023-04-03T05:04:21;98765.81;;;7.47
76901;BMP280;65859;43.020;25.096;2023-04-03T05:06:47;98769.66;;;8.78
76901;BMP280;65859;43.020;25.096;2023-04-03T05:09:13;98769.03;;;8.81
76901;BMP280;65859;43.020;25.096;2023-04-03T05:11:42;98771.69;;;7.79
76901;BMP280;65859;43.020;25.096;2023-04-03T05:14:09;98774.31;;;7.44
76901;BMP280;65859;43.020;25.096;2023-04-03T05:16:35;98769.78;;;8.61
76901;BMP280;65859;43.020;25.096;2023-04-03T05:19:02;98765.94;;;9.30
76901;BMP280;65859;43.020;25.096;2023-04-03T05:21:29;98758.88;;;9.55
76901;BMP280;65859;43.020;25.096;2023-04-03T05:24:01;98772.03;;;9.63
76901;BMP280;65859;43.020;25.096;2023-04-03T05:26:30;98764.41;;;9.83
76901;BMP280;65859;43.020;25.096;2023-04-03T05:28:56;98760.91;;;10.48
76901;BMP280;65859;43.020;25.096;2023-04-03T05:31:23;98770.56;;;10.08
76901;BMP280;65859;43.020;25.096;2023-04-03T05:33:49;98764.97;;;10.70
76901;BMP280;65859;43.020;25.096;2023-04-03T05:36:16;98771.22;;;10.90
76901;BMP280;65859;43.020;25.096;2023-04-03T05:38:42;98771.91;;;10.50
76901;BMP280;65859;43.020;25.096;2023-04-03T05:41:09;98772.03;;;10.54
76901;BMP280;65859;43.020;25.096;2023-04-03T05:43:36;98776.13;;;8.69
76901;BMP280;65859;43.020;25.096;2023-04-03T05:46:14;98774.06;;;8.74
76901;BMP280;65859;43.020;25.096;2023-04-03T05:48:41;98785.78;;;8.64
76901;BMP280;65859;43.020;25.096;2023-04-03T05:51:23;98792.78;;;8.90
76901;BMP280;65859;43.020;25.096;2023-04-03T05:53:58;98799.84;;;9.15
76901;BMP280;65859;43.020;25.096;2023-04-03T05:56:26;98796.41;;;9.36
76901;BMP280;65859;43.020;25.096;2023-04-03T05:58:52;98788.19;;;9.08
76901;BMP280;65859;43.020;25.096;2023-04-03T06:01:19;98791.31;;;9.52
76901;BMP280;65859;43.020;25.096;2023-04-03T06:03:45;98782.09;;;9.91
76901;BMP280;65859;43.020;25.096;2023-04-03T06:06:13;98771.81;;;10.47
76901;BMP280;65859;43.020;25.096;2023-04-03T06:08:40;98769.78;;;11.05
76901;BMP280;65859;43.020;25.096;2023-04-03T06:11:06;98780.84;;;10.95
76901;BMP280;65859;43.020;25.096;2023-04-03T06:13:34;98788.06;;;10.82
76901;BMP280;65859;43.020;25.096;2023-04-03T06:16:02;98791.94;;;10.48
76901;BMP280;65859;43.020;25.096;2023-04-03T06:18:29;98785.44;;;11.22
76901;BMP280;65859;43.020;25.096;2023-04-03T06:20:56;98787.19;;;11.30
76901;BMP280;65859;43.020;25.096;2023-04-03T06:23:22;98787.91;;;11.03
76901;BMP280;65859;43.020;25.096;2023-04-03T06:25:48;98786.78;;;11.16
76901;BMP280;65859;43.020;25.096;2023-04-03T06:28:15;98785.06;;;11.36
76901;BMP280;65859;43.020;25.096;2023-04-03T06:30:41;98779.84;;;11.40
76901;BMP280;65859;43.020;25.096;2023-04-03T06:33:08;98783.78;;;11.58
76901;BMP280;65859;43.020;25.096;2023-04-03T06:35:34;98787.94;;;11.71
76901;BMP280;65859;43.020;25.096;2023-04-03T06:38:01;98787.81;;;12.43
76901;BMP280;65859;43.020;25.096;2023-04-03T06:40:27;98786.88;;;12.35
76901;BMP280;65859;43.020;25.096;2023-04-03T06:42:54;98791.31;;;12.63
76901;BMP280;65859;43.020;25.096;2023-04-03T06:45:20;98787.25;;;11.74
76901;BMP280;65859;43.020;25.096;2023-04-03T06:47:48;98783.22;;;11.52
76901;BMP280;65859;43.020;25.096;2023-04-03T06:50:15;98782.72;;;11.90
76901;BMP280;65859;43.020;25.096;2023-04-03T06:52:41;98786.19;;;12.38
76901;BMP280;65859;43.020;25.096;2023-04-03T06:55:08;98792.06;;;12.63
76901;BMP280;65859;43.020;25.096;2023-04-03T06:57:35;98791.66;;;12.96
76901;BMP280;65859;43.020;25.096;2023-04-03T07:00:03;98783.66;;;13.16
76901;BMP280;65859;43.020;25.096;2023-04-03T07:02:30;98788.19;;;12.77
76901;BMP280;65859;43.020;25.096;2023-04-03T07:04:56;98788.50;;;12.08
76901;BMP280;65859;43.020;25.096;2023-04-03T07:07:23;98786.50;;;11.74
76901;BMP280;65859;43.020;25.096;2023-04-03T07:09:49;98798.38;;;12.24
76901;BMP280;65859;43.020;25.096;2023-04-03T07:12:15;98812.69;;;12.35
76901;BMP280;65859;43.020;25.096;2023-04-03T07:14:42;98799.13;;;12.08
76901;BMP280;65859;43.020;25.096;2023-04-03T07:17:09;98797.50;;;12.04
76901;BMP280;65859;43.020;25.096;2023-04-03T07:19:37;98800.91;;;13.02
76901;BMP280;65859;43.020;25.096;2023-04-03T07:22:03;98788.84;;;12.89
76901;BMP280;65859;43.020;25.096;2023-04-03T07:24:30;98789.59;;;13.25
76901;BMP280;65859;43.020;25.096;2023-04-03T07:26:56;98783.09;;;13.65
76901;BMP280;65859;43.020;25.096;2023-04-03T07:29:23;98787.41;;;13.73
76901;BMP280;65859;43.020;25.096;2023-04-03T07:31:49;98789.66;;;13.71
76901;BMP280;65859;43.020;25.096;2023-04-03T07:34:16;98798.38;;;13.68
76901;BMP280;65859;43.020;25.096;2023-04-03T07:36:42;98796.94;;;13.51
76901;BMP280;65859;43.020;25.096;2023-04-03T07:39:09;98787.91;;;13.78
76901;BMP280;65859;43.020;25.096;2023-04-03T07:41:36;98793.16;;;13.75
76901;BMP280;65859;43.020;25.096;2023-04-03T07:44:02;98797.09;;;14.53
76901;BMP280;65859;43.020;25.096;2023-04-03T07:46:28;98792.25;;;14.36
76901;BMP280;65859;43.020;25.096;2023-04-03T07:48:55;98783.81;;;14.07
76901;BMP280;65859;43.020;25.096;2023-04-03T07:51:22;98788.22;;;13.96
76901;BMP280;65859;43.020;25.096;2023-04-03T07:53:50;98784.22;;;14.32
76901;BMP280;65859;43.020;25.096;2023-04-03T07:56:17;98780.97;;;14.72
76901;BMP280;65859;43.020;25.096;2023-04-03T07:58:43;98779.06;;;15.37
76901;BMP280;65859;43.020;25.096;2023-04-03T08:01:10;98770.91;;;15.22
76901;BMP280;65859;43.020;25.096;2023-04-03T08:03:36;98785.88;;;14.97
76901;BMP280;65859;43.020;25.096;2023-04-03T08:06:06;98782.66;;;15.18
76901;BMP280;65859;43.020;25.096;2023-04-03T08:08:33;98773.97;;;16.13
76901;BMP280;65859;43.020;25.096;2023-04-03T08:11:00;98778.25;;;16.94
76901;BMP280;65859;43.020;25.096;2023-04-03T08:13:29;98777.16;;;17.13
76901;BMP280;65859;43.020;25.096;2023-04-03T08:15:56;98765.72;;;17.41
76901;BMP280;65859;43.020;25.096;2023-04-03T08:18:24;98764.56;;;17.20
76901;BMP280;65859;43.020;25.096;2023-04-03T08:20:52;98751.53;;;17.26
76901;BMP280;65859;43.020;25.096;2023-04-03T08:23:19;98744.69;;;17.46
76901;BMP280;65859;43.020;25.096;2023-04-03T08:25:46;98744.50;;;16.78
76901;BMP280;65859;43.020;25.096;2023-04-03T08:28:12;98740.75;;;16.17
76901;BMP280;65859;43.020;25.096;2023-04-03T08:30:40;98743.88;;;17.24
76901;BMP280;65859;43.020;25.096;2023-04-03T08:33:08;98736.03;;;16.66
76901;BMP280;65859;43.020;25.096;2023-04-03T08:35:39;98741.19;;;17.21
76901;BMP280;65859;43.020;25.096;2023-04-03T08:38:07;98729.69;;;17.27
76901;BMP280;65859;43.020;25.096;2023-04-03T08:40:33;98725.38;;;16.07
76901;BMP280;65859;43.020;25.096;2023-04-03T08:45:49;98723.72;;;16.43
76901;BMP280;65859;43.020;25.096;2023-04-03T08:48:23;98735.81;;;17.67
76901;BMP280;65859;43.020;25.096;2023-04-03T08:50:55;98732.38;;;17.74
76901;BMP280;65859;43.020;25.096;2023-04-03T08:53:28;98731.03;;;18.60
76901;BMP280;65859;43.020;25.096;2023-04-03T08:55:57;98732.06;;;19.36
76901;BMP280;65859;43.020;25.096;2023-04-03T08:58:33;98722.31;;;19.04
76901;BMP280;65859;43.020;25.096;2023-04-03T09:01:53;98719.94;;;19.17
76901;BMP280;65859;43.020;25.096;2023-04-03T09:04:02;98735.28;;;21.44
76901;BMP280;65859;43.020;25.096;2023-04-03T09:06:31;98733.03;;;21.43
76901;BMP280;65859;43.020;25.096;2023-04-03T09:09:36;98723.19;;;21.76
76901;BMP280;65859;43.020;25.096;2023-04-03T09:12:25;98717.13;;;21.01
76901;BMP280;65859;43.020;25.096;2023-04-03T09:15:25;98717.59;;;20.66
76901;BMP280;65859;43.020;25.096;2023-04-03T09:23:32;98715.59;;;22.62
76901;BMP280;65859;43.020;25.096;2023-04-03T09:26:05;98710.69;;;22.57
76901;BMP280;65859;43.020;25.096;2023-04-03T09:28:35;98706.72;;;21.47
76901;BMP280;65859;43.020;25.096;2023-04-03T09:31:24;98701.28;;;21.70
76901;BMP280;65859;43.020;25.096;2023-04-03T09:33:54;98696.59;;;21.94
76901;BMP280;65859;43.020;25.096;2023-04-03T09:36:46;98687.69;;;22.13
76901;BMP280;65859;43.020;25.096;2023-04-03T09:41:41;98683.34;;;22.88
76901;BMP280;65859;43.020;25.096;2023-04-03T09:44:23;98680.44;;;21.04
76901;BMP280;65859;43.020;25.096;2023-04-03T09:46:50;98671.72;;;19.78
76901;BMP280;65859;43.020;25.096;2023-04-03T09:49:17;98678.63;;;19.79
76901;BMP280;65859;43.020;25.096;2023-04-03T09:51:45;98673.63;;;19.40
76901;BMP280;65859;43.020;25.096;2023-04-03T09:54:37;98681.03;;;17.79
76901;BMP280;65859;43.020;25.096;2023-04-03T09:57:11;98679.84;;;17.94
76901;BMP280;65859;43.020;25.096;2023-04-03T09:59:59;98670.19;;;18.07
76901;BMP280;65859;43.020;25.096;2023-04-03T10:02:36;98681.63;;;18.33
76901;BMP280;65859;43.020;25.096;2023-04-03T10:05:05;98679.09;;;17.79
76901;BMP280;65859;43.020;25.096;2023-04-03T10:07:50;98671.81;;;17.80
76901;BMP280;65859;43.020;25.096;2023-04-03T10:10:21;98673.00;;;17.64
76901;BMP280;65859;43.020;25.096;2023-04-03T10:16:03;98666.16;;;19.62
76901;BMP280;65859;43.020;25.096;2023-04-03T10:18:46;98660.25;;;19.33
76901;BMP280;65859;43.020;25.096;2023-04-03T10:24:10;98637.72;;;18.61
76901;BMP280;65859;43.020;25.096;2023-04-03T10:32:13;98631.84;;;18.80
76901;BMP280;65859;43.020;25.096;2023-04-03T10:34:46;98633.13;;;19.09
76901;BMP280;65859;43.020;25.096;2023-04-03T10:37:19;98629.78;;;18.39
76901;BMP280;65859;43.020;25.096;2023-04-03T10:42:50;98616.25;;;17.48
76901;BMP280;65859;43.020;25.096;2023-04-03T10:51:36;98602.63;;;18.26
76901;BMP280;65859;43.020;25.096;2023-04-03T10:56:48;98599.03;;;18.47
76901;BMP280;65859;43.020;25.096;2023-04-03T11:01:51;98591.69;;;19.07
76901;BMP280;65859;43.020;25.096;2023-04-03T11:04:19;98589.44;;;18.98
76901;BMP280;65859;43.020;25.096;2023-04-03T11:07:01;98585.44;;;19.17
76901;BMP280;65859;43.020;25.096;2023-04-03T11:09:34;98582.06;;;20.65
76901;BMP280;65859;43.020;25.096;2023-04-03T11:12:41;98586.38;;;21.85
76901;BMP280;65859;43.020;25.096;2023-04-03T11:15:15;98573.31;;;22.00
76901;BMP280;65859;43.020;25.096;2023-04-03T11:17:51;98566.22;;;20.40
76901;BMP280;65859;43.020;25.096;2023-04-03T11:23:25;98568.25;;;20.09
76901;BMP280;65859;43.020;25.096;2023-04-03T11:25:55;98567.88;;;20.07
76901;BMP280;65859;43.020;25.096;2023-04-03T11:28:24;98557.75;;;19.54
76901;BMP280;65859;43.020;25.096;2023-04-03T11:31:01;98559.72;;;18.71
76901;BMP280;65859;43.020;25.096;2023-04-03T11:36:32;98555.59;;;17.86
76901;BMP280;65859;43.020;25.096;2023-04-03T11:39:27;98551.78;;;17.77
76901;BMP280;65859;43.020;25.096;2023-04-03T11:41:52;98555.00;;;17.18
76901;BMP280;65859;43.020;25.096;2023-04-03T11:46:55;98548.50;;;17.05
76901;BMP280;65859;43.020;25.096;2023-04-03T12:11:30;98572.19;;;16.42
76901;BMP280;65859;43.020;25.096;2023-04-03T12:18:55;98579.38;;;16.24
76901;BMP280;65859;43.020;25.096;2023-04-03T12:46:39;98591.16;;;14.55
76901;BMP280;65859;43.020;25.096;2023-04-03T12:49:30;98611.09;;;14.01
76901;BMP280;65859;43.020;25.096;2023-04-03T12:51:58;98605.44;;;13.30
76901;BMP280;65859;43.020;25.096;2023-04-03T12:54:39;98599.47;;;13.37
76901;BMP280;65859;43.020;25.096;2023-04-03T12:57:16;98593.13;;;13.45
76901;BMP280;65859;43.020;25.096;2023-04-03T12:59:43;98592.22;;;13.37
76901;BMP280;65859;43.020;25.096;2023-04-03T13:04:53;98590.53;;;13.25
76901;BMP280;65859;43.020;25.096;2023-04-03T13:09:58;98600.34;;;13.44
76901;BMP280;65859;43.020;25.096;2023-04-03T13:12:25;98601.34;;;13.59
76901;BMP280;65859;43.020;25.096;2023-04-03T13:14:58;98595.06;;;13.97
76901;BMP280;65859;43.020;25.096;2023-04-03T13:17:25;98590.28;;;14.13
76901;BMP280;65859;43.020;25.096;2023-04-03T13:19:54;98587.75;;;14.24
76901;BMP280;65859;43.020;25.096;2023-04-03T13:23:01;98581.03;;;14.34
76901;BMP280;65859;43.020;25.096;2023-04-03T13:25:28;98576.50;;;14.38
76901;BMP280;65859;43.020;25.096;2023-04-03T13:27:56;98575.00;;;14.44
76901;BMP280;65859;43.020;25.096;2023-04-03T13:30:35;98569.72;;;14.48
76901;BMP280;65859;43.020;25.096;2023-04-03T13:33:05;98564.88;;;14.57
76901;BMP280;65859;43.020;25.096;2023-04-03T13:35:40;98557.97;;;14.52
76901;BMP280;65859;43.020;25.096;2023-04-03T13:38:23;98546.28;;;14.67
76901;BMP280;65859;43.020;25.096;2023-04-03T13:40:53;98546.38;;;14.74
76901;BMP280;65859;43.020;25.096;2023-04-03T13:43:27;98541.72;;;14.68
76901;BMP280;65859;43.020;25.096;2023-04-03T13:46:04;98535.78;;;14.48
76901;BMP280;65859;43.020;25.096;2023-04-03T13:48:45;98527.88;;;14.59
76901;BMP280;65859;43.020;25.096;2023-04-03T13:54:10;98522.34;;;14.74
76901;BMP280;65859;43.020;25.096;2023-04-03T13:56:40;98521.59;;;14.78
76901;BMP280;65859;43.020;25.096;2023-04-03T14:01:55;98522.75;;;14.06
76901;BMP280;65859;43.020;25.096;2023-04-03T14:04:43;98526.59;;;14.08
76901;BMP280;65859;43.020;25.096;2023-04-03T14:07:14;98527.72;;;14.11
76901;BMP280;65859;43.020;25.096;2023-04-03T14:09:42;98520.41;;;14.01
76901;BMP280;65859;43.020;25.096;2023-04-03T14:12:18;98524.84;;;13.93
76901;BMP280;65859;43.020;25.096;2023-04-03T14:14:47;98516.31;;;13.80
76901;BMP280;65859;43.020;25.096;2023-04-03T14:17:17;98528.38;;;13.71
76901;BMP280;65859;43.020;25.096;2023-04-03T14:19:45;98526.19;;;13.76
76901;BMP280;65859;43.020;25.096;2023-04-03T14:22:31;98525.63;;;13.90
76901;BMP280;65859;43.020;25.096;2023-04-03T14:24:58;98528.75;;;13.69
76901;BMP280;65859;43.020;25.096;2023-04-03T14:27:34;98527.47;;;13.59
76901;BMP280;65859;43.020;25.096;2023-04-03T14:30:02;98523.78;;;13.68
76901;BMP280;65859;43.020;25.096;2023-04-03T14:32:30;98530.97;;;13.67
76901;BMP280;65859;43.020;25.096;2023-04-03T14:34:56;98532.41;;;13.87
76901;BMP280;65859;43.020;25.096;2023-04-03T14:37:26;98531.09;;;14.04
76901;BMP280;65859;43.020;25.096;2023-04-03T14:39:56;98535.44;;;13.86
76901;BMP280;65859;43.020;25.096;2023-04-03T14:42:27;98537.19;;;14.01
76901;BMP280;65859;43.020;25.096;2023-04-03T14:44:54;98529.25;;;14.08
76901;BMP280;65859;43.020;25.096;2023-04-03T14:47:24;98528.13;;;14.09
76901;BMP280;65859;43.020;25.096;2023-04-03T14:49:52;98521.00;;;14.21
76901;BMP280;65859;43.020;25.096;2023-04-03T14:52:26;98525.25;;;14.25
76901;BMP280;65859;43.020;25.096;2023-04-03T14:54:54;98527.88;;;14.59
76901;BMP280;65859;43.020;25.096;2023-04-03T14:57:25;98516.16;;;14.67
76901;BMP280;65859;43.020;25.096;2023-04-03T14:59:53;98523.75;;;14.65
76901;BMP280;65859;43.020;25.096;2023-04-03T15:02:31;98528.19;;;14.16
76901;BMP280;65859;43.020;25.096;2023-04-03T15:04:59;98530.47;;;14.14
76901;BMP280;65859;43.020;25.096;2023-04-03T15:07:29;98532.63;;;14.05
76901;BMP280;65859;43.020;25.096;2023-04-03T15:09:56;98531.22;;;14.15
76901;BMP280;65859;43.020;25.096;2023-04-03T15:12:26;98532.41;;;14.17
76901;BMP280;65859;43.020;25.096;2023-04-03T15:14:53;98527.03;;;13.84
76901;BMP280;65859;43.020;25.096;2023-04-03T15:17:22;98537.03;;;13.91
76901;BMP280;65859;43.020;25.096;2023-04-03T15:19:48;98533.78;;;14.04
76901;BMP280;65859;43.020;25.096;2023-04-03T15:22:17;98525.63;;;13.64
76901;BMP280;65859;43.020;25.096;2023-04-03T15:24:45;98518.88;;;13.43
76901;BMP280;65859;43.020;25.096;2023-04-03T15:27:12;98508.09;;;13.36
76901;BMP280;65859;43.020;25.096;2023-04-03T15:29:40;98509.28;;;13.39
76901;BMP280;65859;43.020;25.096;2023-04-03T15:32:07;98511.97;;;13.39
76901;BMP280;65859;43.020;25.096;2023-04-03T15:34:33;98511.88;;;13.35
76901;BMP280;65859;43.020;25.096;2023-04-03T15:37:00;98507.28;;;13.32
76901;BMP280;65859;43.020;25.096;2023-04-03T15:39:27;98501.41;;;13.46
76901;BMP280;65859;43.020;25.096;2023-04-03T15:41:54;98504.88;;;13.50
76901;BMP280;65859;43.020;25.096;2023-04-03T15:44:21;98496.63;;;13.58
76901;BMP280;65859;43.020;25.096;2023-04-03T15:46:49;98494.25;;;13.27
76901;BMP280;65859;43.020;25.096;2023-04-03T15:49:19;98494.56;;;13.22
76901;BMP280;65859;43.020;25.096;2023-04-03T15:51:46;98489.69;;;13.27
76901;BMP280;65859;43.020;25.096;2023-04-03T15:54:13;98485.50;;;13.26
76901;BMP280;65859;43.020;25.096;2023-04-03T15:56:39;98488.44;;;13.21
76901;BMP280;65859;43.020;25.096;2023-04-03T15:59:06;98486.66;;;13.29
76901;BMP280;65859;43.020;25.096;2023-04-03T16:01:32;98490.16;;;13.07
76901;BMP280;65859;43.020;25.096;2023-04-03T16:03:58;98486.59;;;12.99
76901;BMP280;65859;43.020;25.096;2023-04-03T16:06:25;98482.63;;;13.12